Terminal Aerodrome Forecast
Issued by NWS Shreveport, LA

Home | Current Version | Previous Version | Text Only | Print | Product List | Glossary On
Versions: 1 2 3 4 5 6 7 8 9 10 11 12 13 14 15
000
FTUS44 KSHV 011741
TAFGGG
TAF
KGGG 011741Z 0118/0218 22012G20KT P6SM SCT035 SCT250
     FM020000 18009KT P6SM FEW050 SCT250
     FM020900 20010KT P6SM FEW012 SCT100
     FM021100 21010KT 6SM BR BKN010
      TEMPO 0212/0213 5SM BR BKN010
     FM021400 22018G24KT P6SM SCT015 BKN250=

USA.gov is the U.S. government's official web portal to all federal, state and local government web resources and services.